Meteo Giornale » Osservazioni meteo Stati Uniti (USA) » Luray

ore: 14:55 - Osservazioni Meteo Luray
Lat. 38° 40' N Lon. 78° 30' W Alt. 275 metri s.l.m.

coperto

35 °C

Coperto

Temp. 24 Ore

20 °C

35 °C

Ovest/Sud-Ovest

9.3 Km/h

Dew point 17 °C

Umidità 34 %

Visibilità  10 Km

Il sole sorge alle ore 06:43

Il sole tramonta alle ore 19:44

Data e Ora Cielo e Fenomeni T °C DP °C Um. % Pres. hPa Vis. km Vento km/h
Oggi h: 14:55 coperto Coperto 35 17 34 1017 10 O/SO 9.3
Oggi h: 14:35 coperto Coperto 35 17 34 1018 10 N 0
Oggi h: 14:15 coperto Coperto 35 17 34 1018 10 SO 9.3
Oggi h: 13:55 coperto Coperto 35 17 34 1018 10 N 5.5
Oggi h: 13:35 molto_nuvoloso Molto Nuvoloso 35 17 34 1017 10 O/SO 13
Oggi h: 13:15 nuvoloso Nuvoloso 34 20 43 1017 10 S/SO 9.3
Oggi h: 12:55 nuvoloso Nuvoloso 33 19 43 1018 10 SO 11.1
Oggi h: 12:35 nuvoloso Nuvoloso 33 18 41 1018 10 N 5.5
Oggi h: 12:15 sereno Sereno 33 19 43 1018 10 S/SO 7.4
Oggi h: 11:55 sereno Sereno 32 19 46 1018 10 S 7.4
Oggi h: 11:35 sereno Sereno 31 20 52 1018 10 S/SO 11.1
Oggi h: 11:15 sereno Sereno 31 20 52 1019 10 N 5.5
Oggi h: 10:55 sereno Sereno 30 20 55 1019 10 SO 9.3
Oggi h: 10:35 sereno Sereno 28 20 61 1019 10 SO 7.4
Oggi h: 10:15 sereno Sereno 28 20 61 1019 10 N 5.5
Oggi h: 09:55 sereno Sereno 26 20 69 1019 10 N 0
Oggi h: 09:35 sereno Sereno 27 20 65 1019 10 N 0
Oggi h: 09:15 sereno Sereno 26 20 69 1019 10 N 0
Oggi h: 08:55 nuvoloso Nuvoloso 25 20 73 1019 10 N 0
Oggi h: 08:35 nuvoloso Nuvoloso 25 20 73 1019 10 N 0
Oggi h: 08:15 sereno Sereno 22 21 94 1019 10 N 0
Oggi h: 07:55 sereno Sereno 20 20 100 1019 10 N 0
Oggi h: 07:35 sereno Sereno 20 19 93 1019 11 N 0
Oggi h: 07:15 foschia Foschia 20 18 88 1019 8 N 0
Oggi h: 06:55 sereno Sereno 20 19 93 1019 10 N 0
Oggi h: 06:35 sereno Sereno 20 20 100 1019 10 N 0
Oggi h: 06:15 sereno Sereno 20 19 93 1018 10 N 0
Oggi h: 05:55 sereno Sereno 20 19 93 1018 10 N 0
Oggi h: 05:35 sereno Sereno 20 20 100 1018 11 N 0
Oggi h: 05:15 sereno Sereno 20 20 100 1018 10 N 5.5
Oggi h: 04:55 sereno Sereno 20 20 100 1018 11 N 0
Oggi h: 04:35 sereno Sereno 20 20 100 1018 10 N 0
Oggi h: 04:15 sereno Sereno 21 20 94 1018 10 N 0
Oggi h: 03:55 sereno Sereno 21 20 94 1019 10 N 0
Oggi h: 03:35 sereno Sereno 20 20 100 1018 10 N 0
Oggi h: 03:15 sereno Sereno 20 20 100 1019 10 N 0
Oggi h: 02:55 sereno Sereno 21 20 94 1019 11 N 0
Oggi h: 02:35 sereno Sereno 21 20 94 1019 10 N 0
Oggi h: 02:15 sereno Sereno 21 19 88 1019 10 N 0
Oggi h: 01:55 sereno Sereno 21 19 88 1019 10 N 0
Oggi h: 01:35 nuvoloso Nuvoloso 22 19 83 1019 10 N 0
Oggi h: 01:15 molto_nuvoloso Molto Nuvoloso 22 20 88 1019 10 N 0
Oggi h: 00:55 coperto Coperto 22 20 88 1019 10 N 0
Oggi h: 00:35 coperto Coperto 22 19 83 1019 10 N 0
Oggi h: 00:15 coperto Coperto 22 20 88 1020 10 N 0
Ieri h: 23:55 coperto Coperto 22 20 88 1020 10 N 0
Ieri h: 23:35 coperto Coperto 22 20 88 1020 10 N 0
Ieri h: 23:15 coperto Coperto 22 20 88 1020 10 N 0
Ieri h: 22:55 coperto Coperto 22 20 88 1020 10 N 0
Ieri h: 22:35 nuvoloso Nuvoloso 22 19 83 1020 10 N 0
Ieri h: 22:15 sereno Sereno 22 20 88 1020 10 N 0
Ieri h: 21:55 sereno Sereno 22 20 88 1020 10 N 0
Ieri h: 21:35 sereno Sereno 23 20 83 1019 10 N 0
Ieri h: 21:15 sereno Sereno 23 20 83 1019 10 N 0
Ieri h: 20:55 sereno Sereno 23 20 83 1019 10 N 0
Ieri h: 20:35 sereno Sereno 25 20 73 1019 10 N 0
Ieri h: 20:15 nuvoloso Nuvoloso 25 19 69 1018 10 N 0
Ieri h: 19:55 molto_nuvoloso Molto Nuvoloso 26 20 69 1019 10 N 0
Ieri h: 19:35 molto_nuvoloso Molto Nuvoloso 27 19 61 1019 10 N 0
Ieri h: 19:15 coperto Coperto 27 19 61 1019 10 N 0
Ieri h: 18:55 molto_nuvoloso Molto Nuvoloso 28 19 58 1019 10 N 0
Ieri h: 18:35 molto_nuvoloso Molto Nuvoloso 29 18 51 1019 10 N 5.5
Ieri h: 18:15 nuvoloso Nuvoloso 31 18 45 1019 10 N 0
Ieri h: 17:55 molto_nuvoloso Molto Nuvoloso 32 16 38 1019 10 N 0
Ieri h: 17:35 coperto Coperto 32 17 40 1019 10 N 0
Ieri h: 17:15 coperto Coperto 31 17 43 1019 10 N 0
Ieri h: 16:55 coperto Coperto 30 17 45 1019 10 N 0
Ieri h: 16:35 coperto Coperto 30 17 45 1019 10 N 0
Ieri h: 16:15 coperto Coperto 30 17 45 1019 10 N 5.5
Ieri h: 15:55 molto_nuvoloso Molto Nuvoloso 31 16 40 1019 10 N 0
Ieri h: 15:35 nuvoloso Nuvoloso 31 17 43 1019 10 N 0